createdAt,value
2018-08-22T00:00:04.311Z,3.67
2018-08-22T00:02:33.542Z,4.53
2018-08-22T00:05:02.631Z,4.20
2018-08-22T00:07:31.667Z,4.00
2018-08-22T00:10:00.667Z,4.30
2018-08-22T00:12:31.655Z,5.33
2018-08-22T00:15:00.676Z,4.20
2018-08-22T00:17:43.496Z,4.50
2018-08-22T00:20:12.595Z,3.80
2018-08-22T00:22:41.852Z,4.60
2018-08-22T00:25:11.800Z,5.57
2018-08-22T00:27:41.257Z,4.50
2018-08-22T00:30:10.452Z,5.23
2018-08-22T00:32:39.553Z,4.93
2018-08-22T00:35:08.671Z,5.80
2018-08-22T00:37:37.771Z,3.67
2018-08-22T00:40:06.869Z,4.00
2018-08-22T00:42:35.856Z,4.67
2018-08-22T00:45:06.437Z,4.37
2018-08-22T00:47:35.657Z,4.80
2018-08-22T00:50:04.713Z,4.97
2018-08-22T00:52:33.854Z,4.17
2018-08-22T00:55:03.166Z,5.20
2018-08-22T00:57:32.340Z,4.40
2018-08-22T01:00:01.773Z,4.70
2018-08-22T01:02:30.716Z,5.17
2018-08-22T01:04:59.872Z,4.33
2018-08-22T01:07:28.933Z,4.80
2018-08-22T01:09:57.928Z,5.70
2018-08-22T01:12:27.167Z,3.77
2018-08-22T01:14:56.092Z,4.97
2018-08-22T01:17:25.162Z,6.10
2018-08-22T01:19:54.160Z,5.50
2018-08-22T01:22:23.112Z,5.27
2018-08-22T01:24:52.189Z,5.23
2018-08-22T01:27:22.550Z,4.47
2018-08-22T01:29:53.732Z,4.30
2018-08-22T01:32:23.089Z,4.80
2018-08-22T01:34:53.248Z,4.63
2018-08-22T01:37:22.225Z,4.67
2018-08-22T01:39:51.215Z,4.90
2018-08-22T01:42:20.254Z,4.57
2018-08-22T01:44:49.164Z,4.73
2018-08-22T01:47:18.257Z,4.80
2018-08-22T01:49:47.261Z,3.73
2018-08-22T01:52:16.193Z,4.73
2018-08-22T01:54:45.411Z,4.23
2018-08-22T01:57:14.371Z,4.47
2018-08-22T01:59:43.377Z,4.17
2018-08-22T02:02:12.240Z,4.07
2018-08-22T02:04:41.326Z,4.47
2018-08-22T02:07:10.266Z,4.00
2018-08-22T02:09:39.300Z,3.73
2018-08-22T02:12:08.184Z,4.03
2018-08-22T02:14:37.241Z,5.00
2018-08-22T02:17:06.303Z,3.90
2018-08-22T02:19:35.376Z,5.57
2018-08-22T02:22:04.230Z,4.70
2018-08-22T02:24:33.633Z,4.93
2018-08-22T02:27:02.592Z,5.20
2018-08-22T02:29:31.646Z,4.20
2018-08-22T02:32:00.681Z,4.03
2018-08-22T02:34:29.751Z,3.60
2018-08-22T02:36:58.816Z,4.67
2018-08-22T02:39:27.868Z,4.40
2018-08-22T02:41:56.769Z,4.03
2018-08-22T02:44:25.975Z,3.90
2018-08-22T02:46:55.009Z,3.20
2018-08-22T02:49:24.001Z,4.50
2018-08-22T02:51:52.946Z,4.10
2018-08-22T02:54:21.967Z,3.10
2018-08-22T02:56:51.030Z,3.77
2018-08-22T02:59:20.071Z,4.23
2018-08-22T03:01:49.160Z,4.80
2018-08-22T03:04:18.337Z,4.43
2018-08-22T03:06:47.190Z,3.90
2018-08-22T03:09:16.605Z,4.80
2018-08-22T03:11:45.521Z,3.93
2018-08-22T03:14:14.633Z,4.67
2018-08-22T03:16:43.652Z,4.20
2018-08-22T03:19:12.608Z,4.30
2018-08-22T03:21:41.511Z,4.60
2018-08-22T03:24:10.533Z,4.60
2018-08-22T03:26:39.577Z,4.83
2018-08-22T03:29:08.947Z,5.50
2018-08-22T03:31:37.802Z,5.07
2018-08-22T03:34:07.012Z,3.73
2018-08-22T03:36:35.984Z,4.27
2018-08-22T03:39:06.276Z,5.57
2018-08-22T03:41:35.264Z,4.70
2018-08-22T03:44:04.284Z,3.67
2018-08-22T03:46:33.376Z,4.23
2018-08-22T03:49:02.428Z,4.17
2018-08-22T03:51:31.394Z,5.10
2018-08-22T03:54:00.399Z,4.50
2018-08-22T03:56:29.612Z,4.73
2018-08-22T03:58:58.522Z,5.87
2018-08-22T04:01:27.531Z,5.50
2018-08-22T04:03:56.442Z,5.10
2018-08-22T04:06:25.611Z,5.17
2018-08-22T04:08:55.133Z,5.00
2018-08-22T04:11:24.349Z,4.30
2018-08-22T04:13:53.414Z,5.03
2018-08-22T04:16:22.530Z,5.50
2018-08-22T04:18:51.617Z,5.30
2018-08-22T04:21:20.685Z,4.13
2018-08-22T04:23:49.657Z,5.00
2018-08-22T04:26:22.395Z,5.27
2018-08-22T04:28:51.512Z,5.30
2018-08-22T04:31:20.571Z,4.73
2018-08-22T04:33:49.670Z,4.87
2018-08-22T04:36:18.741Z,5.73
2018-08-22T04:38:47.817Z,5.47
2018-08-22T04:41:16.953Z,5.47
2018-08-22T04:43:46.013Z,7.30
2018-08-22T04:46:15.145Z,5.37
2018-08-22T04:48:44.254Z,5.90
2018-08-22T04:51:13.275Z,5.20
2018-08-22T04:53:42.433Z,5.63
2018-08-22T04:56:11.498Z,6.43
2018-08-22T04:58:40.539Z,5.17
2018-08-22T05:01:09.483Z,4.57
2018-08-22T05:03:38.551Z,6.23
2018-08-22T05:06:07.638Z,5.17
2018-08-22T05:08:36.766Z,5.90
2018-08-22T05:11:05.951Z,5.03
2018-08-22T05:13:34.997Z,6.00
2018-08-22T05:16:03.988Z,6.17
2018-08-22T05:18:33.015Z,5.97
2018-08-22T05:21:02.213Z,5.27
2018-08-22T05:23:31.364Z,5.77
2018-08-22T05:26:01.578Z,5.13
2018-08-22T05:28:30.607Z,4.07
2018-08-22T05:30:59.915Z,5.40
2018-08-22T05:33:28.934Z,5.50
2018-08-22T05:35:57.962Z,4.23
2018-08-22T05:38:26.976Z,4.27
2018-08-22T05:40:56.062Z,4.20
2018-08-22T05:43:25.383Z,4.90
2018-08-22T05:45:54.513Z,4.83
2018-08-22T05:48:23.662Z,5.20
2018-08-22T05:50:52.815Z,4.67
2018-08-22T05:53:21.928Z,3.70
2018-08-22T05:55:50.966Z,47.80
2018-08-22T05:58:20.091Z,39.20
2018-08-22T06:00:49.842Z,20.63
2018-08-22T06:03:18.972Z,10.10
2018-08-22T06:05:48.017Z,6.90
2018-08-22T06:08:17.265Z,4.87
2018-08-22T06:10:46.303Z,4.97
2018-08-22T06:13:15.329Z,4.60
2018-08-22T06:15:44.351Z,5.73
2018-08-22T06:18:13.490Z,5.37
2018-08-22T06:20:42.820Z,12.00
2018-08-22T06:23:11.950Z,5.30
2018-08-22T06:25:41.095Z,6.47
2018-08-22T06:28:10.181Z,6.40
2018-08-22T06:30:39.457Z,7.67
2018-08-22T06:33:08.794Z,5.53
2018-08-22T06:35:38.071Z,5.50
2018-08-22T06:38:07.210Z,5.17
2018-08-22T06:40:36.266Z,5.27
2018-08-22T06:43:05.290Z,5.00
2018-08-22T06:45:34.825Z,5.87
2018-08-22T06:48:04.036Z,5.23
2018-08-22T06:50:33.158Z,4.90
2018-08-22T06:53:02.762Z,4.10
2018-08-22T06:55:31.952Z,3.93
2018-08-22T06:58:01.085Z,4.50
2018-08-22T07:00:30.201Z,3.90
2018-08-22T07:02:59.319Z,4.47
2018-08-22T07:05:28.428Z,4.50
2018-08-22T07:07:58.187Z,4.90
2018-08-22T07:10:27.450Z,5.10
2018-08-22T07:12:56.601Z,3.30
2018-08-22T07:15:25.969Z,3.93
2018-08-22T07:17:55.488Z,4.30
2018-08-22T07:20:24.652Z,5.43
2018-08-22T07:22:54.289Z,3.97
2018-08-22T07:25:23.413Z,3.97
2018-08-22T07:27:52.513Z,4.53
2018-08-22T07:30:22.206Z,5.07
2018-08-22T07:32:51.334Z,4.67
2018-08-22T07:35:20.413Z,3.50
2018-08-22T07:37:49.613Z,4.90
2018-08-22T07:40:19.144Z,4.47
2018-08-22T07:42:48.258Z,4.20
2018-08-22T07:45:18.345Z,6.47
2018-08-22T07:47:47.875Z,5.10
2018-08-22T07:50:16.982Z,4.93
2018-08-22T07:52:51.348Z,4.13
2018-08-22T07:55:20.675Z,5.40
2018-08-22T07:57:52.990Z,3.13
2018-08-22T08:00:22.133Z,4.63
2018-08-22T08:02:51.466Z,4.00
2018-08-22T08:05:21.164Z,4.40
2018-08-22T08:07:50.267Z,3.67
2018-08-22T08:10:24.401Z,3.90
2018-08-22T08:12:53.871Z,3.93
2018-08-22T08:15:23.383Z,3.20
2018-08-22T08:17:52.371Z,4.00
2018-08-22T08:20:21.583Z,3.67
2018-08-22T08:22:50.773Z,4.00
2018-08-22T08:25:19.993Z,4.00
2018-08-22T08:27:49.071Z,4.17
2018-08-22T08:30:18.678Z,4.87
2018-08-22T08:32:47.798Z,3.90
2018-08-22T08:35:16.955Z,4.90
2018-08-22T08:37:46.158Z,4.10
2018-08-22T08:40:15.262Z,3.80
2018-08-22T08:42:46.080Z,5.63
2018-08-22T08:45:15.189Z,5.00
2018-08-22T08:47:44.476Z,4.77
2018-08-22T08:50:13.864Z,4.20
2018-08-22T08:52:43.031Z,3.57
2018-08-22T08:55:12.081Z,4.80
2018-08-22T08:57:41.225Z,4.43
2018-08-22T09:00:10.473Z,4.20
2018-08-22T09:02:39.544Z,4.47
2018-08-22T09:05:08.812Z,4.03
2018-08-22T09:07:37.891Z,4.30
2018-08-22T09:10:07.409Z,4.27
2018-08-22T09:12:39.486Z,4.97
2018-08-22T09:15:08.630Z,4.47
2018-08-22T09:17:37.757Z,4.17
2018-08-22T09:20:07.658Z,4.63
2018-08-22T09:22:37.010Z,4.60
2018-08-22T09:25:06.199Z,4.70
2018-08-22T09:27:38.817Z,5.07
2018-08-22T09:30:07.960Z,4.77
2018-08-22T09:32:37.018Z,4.50
2018-08-22T09:35:06.153Z,5.17
2018-08-22T09:37:44.171Z,4.97
2018-08-22T09:40:13.515Z,5.20
2018-08-22T09:42:42.614Z,5.20
2018-08-22T09:45:11.790Z,4.13
2018-08-22T09:47:40.890Z,3.70
2018-08-22T09:50:10.205Z,5.37
2018-08-22T09:52:39.450Z,4.43
2018-08-22T09:55:08.695Z,3.43
2018-08-22T09:57:37.786Z,4.30
2018-08-22T10:00:07.533Z,4.93
2018-08-22T10:02:36.681Z,4.70
2018-08-22T10:05:05.915Z,5.87
2018-08-22T10:07:35.052Z,4.73
2018-08-22T10:10:04.449Z,4.50
2018-08-22T10:12:34.357Z,3.87
2018-08-22T10:15:03.771Z,4.43
2018-08-22T10:17:32.901Z,4.40
2018-08-22T10:20:01.979Z,5.60
2018-08-22T10:22:31.021Z,4.80
2018-08-22T10:25:00.841Z,4.23
2018-08-22T10:27:30.022Z,6.00
2018-08-22T10:29:59.184Z,5.47
2018-08-22T10:32:28.279Z,5.40
2018-08-22T10:34:57.483Z,4.80
2018-08-22T10:37:26.715Z,5.67
2018-08-22T10:39:55.886Z,4.23
2018-08-22T10:42:25.113Z,6.37
2018-08-22T10:44:54.302Z,5.60
2018-08-22T10:47:23.498Z,4.83
2018-08-22T10:49:52.708Z,5.90
2018-08-22T10:52:21.751Z,5.23
2018-08-22T10:54:50.937Z,5.10
2018-08-22T10:57:19.996Z,7.00
2018-08-22T10:59:49.070Z,5.30
2018-08-22T11:02:18.233Z,4.40
2018-08-22T11:04:47.321Z,5.83
2018-08-22T11:07:17.101Z,5.30
2018-08-22T11:09:46.226Z,5.30
2018-08-22T11:12:15.301Z,6.10
2018-08-22T11:14:44.535Z,7.50
2018-08-22T11:17:13.675Z,8.23
2018-08-22T11:19:55.753Z,6.50
2018-08-22T11:22:35.695Z,4.80
2018-08-22T11:25:15.564Z,6.07
2018-08-22T11:27:58.733Z,5.93
2018-08-22T11:30:38.613Z,5.80
2018-08-22T11:33:18.579Z,5.20
2018-08-22T11:35:46.306Z,5.93
2018-08-22T11:38:15.904Z,6.23
2018-08-22T11:40:45.120Z,6.97
2018-08-22T11:43:14.249Z,6.90
2018-08-22T11:45:43.661Z,5.30
2018-08-22T11:48:20.521Z,5.07
2018-08-22T11:50:49.617Z,6.70
2018-08-22T11:53:18.808Z,4.87
2018-08-22T11:55:48.385Z,5.37
2018-08-22T11:58:25.333Z,5.50
2018-08-22T12:00:54.433Z,5.60
2018-08-22T12:03:23.466Z,4.90
2018-08-22T12:05:52.570Z,4.63
2018-08-22T12:08:33.601Z,5.17
2018-08-22T12:11:02.860Z,7.30
2018-08-22T12:13:32.313Z,5.03
2018-08-22T12:16:01.806Z,5.20
2018-08-22T12:18:30.987Z,6.00
2018-08-22T12:21:00.425Z,6.47
2018-08-22T12:23:29.567Z,5.63
2018-08-22T12:25:58.769Z,4.93
2018-08-22T12:28:32.225Z,5.50
2018-08-22T12:31:01.486Z,5.43
2018-08-22T12:33:30.705Z,6.27
2018-08-22T12:35:59.705Z,6.77
2018-08-22T12:38:28.881Z,5.50
2018-08-22T12:40:58.031Z,5.77
2018-08-22T12:43:27.576Z,5.70
2018-08-22T12:45:56.847Z,6.20
2018-08-22T12:48:40.093Z,5.53
2018-08-22T12:51:09.534Z,4.80
2018-08-22T12:53:38.697Z,5.90
2018-08-22T12:56:08.243Z,5.33
2018-08-22T12:58:45.589Z,6.30
2018-08-22T13:01:14.851Z,5.87
2018-08-22T13:03:44.157Z,7.13
2018-08-22T13:06:13.477Z,5.40
2018-08-22T13:08:50.447Z,5.70
2018-08-22T13:11:19.938Z,4.40
2018-08-22T13:13:49.059Z,5.67
2018-08-22T13:16:18.134Z,4.90
2018-08-22T13:19:02.525Z,4.17
2018-08-22T13:21:32.040Z,8.50
2018-08-22T13:24:01.309Z,6.77
2018-08-22T13:26:30.334Z,5.10
2018-08-22T13:29:42.888Z,6.00
2018-08-22T13:32:12.133Z,5.15
2018-08-22T13:34:41.217Z,5.55
2018-08-22T13:37:10.251Z,4.97
2018-08-22T13:39:47.717Z,4.97
2018-08-22T13:42:17.011Z,5.87
2018-08-22T13:44:46.082Z,6.20
2018-08-22T13:47:15.273Z,5.07
2018-08-22T13:49:45.287Z,5.35
2018-08-22T13:52:14.447Z,5.70
2018-08-22T13:54:43.960Z,6.35
2018-08-22T13:57:13.103Z,5.10
2018-08-22T13:59:45.412Z,5.28
2018-08-22T14:02:14.482Z,6.20
2018-08-22T14:04:43.489Z,6.40
2018-08-22T14:07:12.653Z,6.15
2018-08-22T14:09:49.509Z,6.50
2018-08-22T14:12:18.510Z,6.72
2018-08-22T14:14:47.670Z,5.97
2018-08-22T14:17:16.739Z,7.17
2018-08-22T14:19:55.380Z,6.10
2018-08-22T14:22:24.476Z,6.95
2018-08-22T14:24:53.505Z,5.65
2018-08-22T14:27:22.633Z,5.53
2018-08-22T14:30:05.870Z,6.40
2018-08-22T14:32:35.467Z,6.00
2018-08-22T14:35:04.756Z,5.40
2018-08-22T14:37:33.780Z,7.05
2018-08-22T14:40:05.006Z,11.68
2018-08-22T14:42:34.245Z,6.03
2018-08-22T14:45:05.021Z,6.28
2018-08-22T14:47:34.142Z,6.00
2018-08-22T14:50:07.422Z,5.90
2018-08-22T14:52:37.463Z,5.40
2018-08-22T14:55:06.650Z,7.67
2018-08-22T14:57:35.670Z,6.50
2018-08-22T15:00:04.838Z,7.67
2018-08-22T15:02:34.110Z,7.40
2018-08-22T15:05:03.198Z,6.72
2018-08-22T15:07:32.216Z,6.70
2018-08-22T15:10:13.970Z,7.05
2018-08-22T15:12:43.190Z,7.17
2018-08-22T15:15:12.333Z,7.37
2018-08-22T15:17:45.921Z,6.80
2018-08-22T15:20:15.091Z,7.03
2018-08-22T15:22:44.360Z,6.33
2018-08-22T15:25:14.261Z,6.37
2018-08-22T15:27:43.857Z,7.35
2018-08-22T15:30:13.061Z,7.45
2018-08-22T15:32:42.140Z,6.22
2018-08-22T15:35:11.352Z,7.15
2018-08-22T15:37:40.776Z,6.70
2018-08-22T15:40:10.298Z,7.92
2018-08-22T15:42:39.276Z,7.08
2018-08-22T15:45:08.429Z,7.08
2018-08-22T15:47:37.670Z,6.72
2018-08-22T15:50:07.457Z,7.40
2018-08-22T15:52:36.622Z,7.40
2018-08-22T15:55:13.810Z,7.63
2018-08-22T15:57:54.980Z,7.27
2018-08-22T16:00:45.533Z,7.77
2018-08-22T16:03:14.771Z,7.07
2018-08-22T16:05:44.963Z,7.70
2018-08-22T16:08:15.206Z,9.10
2018-08-22T16:10:44.517Z,7.70
2018-08-22T16:13:18.906Z,6.90
2018-08-22T16:15:49.845Z,7.33
2018-08-22T16:18:19.087Z,7.97
2018-08-22T16:20:54.491Z,7.43
2018-08-22T16:23:26.633Z,8.40
2018-08-22T16:25:57.204Z,8.17
2018-08-22T16:28:27.209Z,6.90
2018-08-22T16:30:58.073Z,7.50
2018-08-22T16:33:27.286Z,6.80
2018-08-22T16:35:56.459Z,8.10
2018-08-22T16:38:25.853Z,7.30
2018-08-22T16:40:55.117Z,7.80
2018-08-22T16:43:40.282Z,8.10
2018-08-22T16:46:11.386Z,7.83
2018-08-22T16:48:41.272Z,7.70
2018-08-22T16:51:10.382Z,7.87
2018-08-22T16:53:39.833Z,7.80
2018-08-22T16:56:09.114Z,8.07
2018-08-22T16:58:38.211Z,7.80
2018-08-22T17:01:07.287Z,6.03
2018-08-22T17:03:36.388Z,8.30
2018-08-22T17:06:09.604Z,9.03
2018-08-22T17:08:38.660Z,8.60
2018-08-22T17:11:08.702Z,9.70
2018-08-22T17:13:45.696Z,9.33
2018-08-22T17:16:14.870Z,8.90
2018-08-22T17:18:44.092Z,10.43
2018-08-22T17:21:13.274Z,9.83
2018-08-22T17:23:42.970Z,11.00
2018-08-22T17:26:13.174Z,11.80
2018-08-22T17:28:44.085Z,12.00
2018-08-22T17:31:14.917Z,13.30
2018-08-22T17:33:48.555Z,13.70
2018-08-22T17:36:18.228Z,12.13
2018-08-22T17:38:48.920Z,11.07
2018-08-22T17:41:20.134Z,13.87
2018-08-22T17:44:13.149Z,14.27
2018-08-22T17:46:51.347Z,12.10
2018-08-22T17:49:20.939Z,12.67
2018-08-22T17:52:04.812Z,13.57
2018-08-22T17:54:34.081Z,13.40
2018-08-22T17:57:12.856Z,12.60
2018-08-22T17:59:43.024Z,14.57
2018-08-22T18:02:12.716Z,13.43
2018-08-22T18:04:56.798Z,14.07
2018-08-22T18:07:25.902Z,15.20
2018-08-22T18:09:55.787Z,13.20
2018-08-22T18:12:25.950Z,12.23
2018-08-22T18:14:59.267Z,11.57
2018-08-22T18:17:28.537Z,11.77
2018-08-22T18:19:57.768Z,12.10
2018-08-22T18:22:31.378Z,11.67
2018-08-22T18:25:00.566Z,13.77
2018-08-22T18:27:29.877Z,11.00
2018-08-22T18:29:58.937Z,12.10
2018-08-22T18:32:31.300Z,13.43
2018-08-22T18:35:07.348Z,13.17
2018-08-22T18:37:36.548Z,13.87
2018-08-22T18:40:12.225Z,12.50
2018-08-22T18:42:41.645Z,14.67
2018-08-22T18:45:10.856Z,14.87
2018-08-22T18:47:40.190Z,14.70
2018-08-22T18:50:09.287Z,12.57
2018-08-22T18:52:38.415Z,14.77
2018-08-22T18:55:07.553Z,13.87
2018-08-22T18:57:36.709Z,15.27
2018-08-22T19:00:08.530Z,15.67
2018-08-22T19:02:37.727Z,15.20
2018-08-22T19:05:40.685Z,16.03
2018-08-22T19:08:13.201Z,15.30
2018-08-22T19:10:43.572Z,17.37
2018-08-22T19:13:24.004Z,16.27
2018-08-22T19:15:55.352Z,17.10
2018-08-22T19:18:24.737Z,14.37
2018-08-22T19:20:56.013Z,15.97
2018-08-22T19:23:25.370Z,17.00
2018-08-22T19:25:55.108Z,16.70
2018-08-22T19:28:24.353Z,16.40
2018-08-22T19:30:53.503Z,15.40
2018-08-22T19:33:23.997Z,15.23
2018-08-22T19:35:53.222Z,16.90
2018-08-22T19:38:25.521Z,15.87
2018-08-22T19:40:54.722Z,15.83
2018-08-22T19:43:24.082Z,18.27
2018-08-22T19:45:53.327Z,17.47
2018-08-22T19:48:22.710Z,15.67
2018-08-22T19:50:52.122Z,16.87
2018-08-22T19:53:21.880Z,16.27
2018-08-22T19:55:51.132Z,17.83
2018-08-22T19:58:28.470Z,21.37
2018-08-22T20:00:59.081Z,15.50
2018-08-22T20:03:32.315Z,19.23
2018-08-22T20:06:01.478Z,15.90
2018-08-22T20:08:37.473Z,16.53
2018-08-22T20:11:07.309Z,17.37
2018-08-22T20:13:49.680Z,16.60
2018-08-22T20:16:20.154Z,18.40
2018-08-22T20:18:50.943Z,21.27
2018-08-22T20:21:26.917Z,21.00
2018-08-22T20:23:58.084Z,22.53
2018-08-22T20:26:27.965Z,25.60
2018-08-22T20:28:58.311Z,25.80
2018-08-22T20:31:27.546Z,27.23
2018-08-22T20:34:08.184Z,27.20
2018-08-22T20:36:37.397Z,25.77
2018-08-22T20:39:10.645Z,26.83
2018-08-22T20:41:41.364Z,27.23
2018-08-22T20:44:19.339Z,28.83
2018-08-22T20:46:49.775Z,29.40
2018-08-22T20:49:20.265Z,32.50
2018-08-22T20:51:50.101Z,27.77
2018-08-22T20:54:23.109Z,30.67
2018-08-22T20:56:57.344Z,31.70
2018-08-22T20:59:26.515Z,34.40
2018-08-22T21:02:10.797Z,32.90
2018-08-22T21:04:40.018Z,32.37
2018-08-22T21:07:09.225Z,30.03
2018-08-22T21:09:38.409Z,33.57
2018-08-22T21:12:07.752Z,31.90
2018-08-22T21:14:36.928Z,36.30
2018-08-22T21:17:06.337Z,34.07
2018-08-22T21:19:35.545Z,31.90
2018-08-22T21:22:09.695Z,33.10
2018-08-22T21:24:39.055Z,35.30
2018-08-22T21:27:08.270Z,35.20
2018-08-22T21:29:37.443Z,37.40
2018-08-22T21:32:06.837Z,35.23
2018-08-22T21:34:36.281Z,34.17
2018-08-22T21:37:15.020Z,36.30
2018-08-22T21:39:44.097Z,34.47
2018-08-22T21:42:13.248Z,36.57
2018-08-22T21:44:43.494Z,37.50
2018-08-22T21:47:12.773Z,37.00
2018-08-22T21:49:42.038Z,38.30
2018-08-22T21:52:11.474Z,39.50
2018-08-22T21:54:41.149Z,41.20
2018-08-22T21:57:10.267Z,41.57
2018-08-22T21:59:39.411Z,40.63
2018-08-22T22:02:09.652Z,40.50
2018-08-22T22:04:42.030Z,39.70
2018-08-22T22:07:12.289Z,42.77
2018-08-22T22:09:41.333Z,40.40
2018-08-22T22:12:15.379Z,43.60
2018-08-22T22:14:45.631Z,41.17
2018-08-22T22:17:14.738Z,41.03
2018-08-22T22:19:43.973Z,42.17
2018-08-22T22:22:13.058Z,45.27
2018-08-22T22:24:52.785Z,40.70
2018-08-22T22:27:22.105Z,43.17
2018-08-22T22:29:56.783Z,45.70
2018-08-22T22:32:25.911Z,40.40
2018-08-22T22:34:54.985Z,41.27
2018-08-22T22:37:24.093Z,41.73
2018-08-22T22:39:53.247Z,41.27
2018-08-22T22:42:30.461Z,44.47
2018-08-22T22:45:00.546Z,42.33
2018-08-22T22:47:30.893Z,46.30
2018-08-22T22:50:00.886Z,47.60
2018-08-22T22:52:38.323Z,47.53
2018-08-22T22:55:08.453Z,47.63
2018-08-22T22:57:38.753Z,45.50
2018-08-22T23:00:11.137Z,39.10
2018-08-22T23:02:40.580Z,42.83
2018-08-22T23:05:10.085Z,42.27
2018-08-22T23:07:40.349Z,42.57
2018-08-22T23:10:11.881Z,42.10
2018-08-22T23:12:43.305Z,42.40
2018-08-22T23:15:14.355Z,48.37
2018-08-22T23:17:43.960Z,48.03
2018-08-22T23:20:23.434Z,42.70
2018-08-22T23:22:52.484Z,48.40
2018-08-22T23:25:25.565Z,49.50
2018-08-22T23:27:54.776Z,54.60
2018-08-22T23:30:28.909Z,59.10
2018-08-22T23:32:58.086Z,56.53
2018-08-22T23:35:29.233Z,50.17
2018-08-22T23:37:59.451Z,57.00
2018-08-22T23:40:29.749Z,55.93
2018-08-22T23:42:59.169Z,62.20
2018-08-22T23:45:28.776Z,68.00
2018-08-22T23:47:57.854Z,66.60
2018-08-22T23:50:36.823Z,65.43
2018-08-22T23:53:05.897Z,73.13
2018-08-22T23:55:34.871Z,69.73
2018-08-22T23:58:04.274Z,61.97
